Data for 11/24/2007

Time Sea-Level Adjusted Pressure Absolute Pressure Temperature Relative Humidity Dew Point   
(mb) (inHg) (mb) (inHg) (C) (F) (%) (C) (F)
00:05 1019 30.09 849 25.07 -10.6 12.9 75 -14.2 6.5
00:10 1019 30.09 849 25.07 -10.1 13.8 74 -13.9 6.9
00:15 1019 30.09 849 25.07 -10.1 13.9 75 -13.7 7.4
00:20 1019 30.09 849 25.07 -10.6 12.9 78 -13.7 7.4
00:25 1019 30.09 849 25.07 -10.6 12.9 77 -13.9 7
00:30 1019 30.09 849 25.07 -10.6 12.9 81 -13.4 8
00:35 1019 30.09 849 25.07 -10.5 13.2 79 -13.4 7.9
00:40 1019 30.09 849 25.07 -10.8 12.6 81 -13.5 7.7
00:45 1019 30.09 849 25.07 -11.1 12.1 81 -13.7 7.3
00:50 1019 30.09 849 25.07 -11.1 12.1 84 -13.3 8
00:55 1019 30.09 849 25.07 -10.9 12.5 83 -13.3 8.1
01:00 1019 30.09 848 25.04 -10.9 12.5 84 -13.1 8.5
01:05 1019 30.09 848 25.04 -10.8 12.6 84 -13 8.6
01:10 1019 30.09 848 25.04 -10.5 13 83 -12.9 8.7
01:15 1019 30.09 848 25.04 -10.1 13.9 77 -13.3 8
01:20 1019 30.09 848 25.04 -9.6 14.8 75 -13.2 8.3
01:25 1019 30.09 848 25.04 -9.6 14.7 77 -12.9 8.7
01:30 1019 30.09 848 25.04 -9.4 15.1 74 -13.1 8.3
01:35 1019 30.09 848 25.04 -9.5 15 76 -13 8.7
01:40 1019 30.09 848 25.04 -9.9 14.2 80 -12.8 9
01:45 1019 30.09 848 25.04 -9.9 14.2 81 -12.6 9.3
01:50 1019 30.09 848 25.04 -9.6 14.6 79 -12.6 9.4
01:55 1019 30.09 848 25.04 -9.6 14.7 79 -12.6 9.4
02:00 1019 30.09 848 25.04 -9.7 14.6 80 -12.5 9.5
02:05 1019 30.09 848 25.04 -9.7 14.6 80 -12.5 9.5
02:10 1019 30.09 848 25.04 -9.3 15.3 79 -12.3 9.9
02:15 1019 30.09 849 25.07 -9.1 15.5 80 -12 10.3
02:20 1019 30.09 849 25.07 -9.1 15.6 80 -12 10.4
02:25 1019 30.09 849 25.07 -9.2 15.4 79 -12.2 10
02:30 1020 30.12 849 25.07 -9.4 15 81 -12.2 10
02:35 1020 30.12 849 25.07 -9.6 14.8 82 -12.1 10.1
02:40 1020 30.12 849 25.07 -9.7 14.6 81 -12.4 9.7
02:45 1020 30.12 849 25.07 -9.8 14.3 82 -12.3 9.8
02:50 1020 30.12 849 25.07 -10 14 82 -12.6 9.3
02:55 1020 30.12 849 25.07 -10.2 13.6 84 -12.5 9.6
03:00 1019 30.09 849 25.07 -10.1 13.9 85 -12.1 10.3
03:05 1019 30.09 849 25.07 -9.7 14.6 83 -12 10.4
03:10 1019 30.09 849 25.07 -9.5 14.9 83 -11.9 10.6
03:15 1019 30.09 848 25.04 -9.6 14.7 83 -11.9 10.5
03:20 1019 30.09 848 25.04 -10 14.1 84 -12.1 10.2
03:25 1019 30.09 848 25.04 -10.2 13.6 84 -12.4 9.7
03:30 1019 30.09 848 25.04 -10.1 13.8 84 -12.3 9.9
03:35 1019 30.09 848 25.04 -10 14 84 -12.2 10
03:40 1019 30.09 848 25.04 -9.9 14.1 84 -12.2 10
03:45 1019 30.09 848 25.04 -10 14 82 -12.4 9.6
03:50 1019 30.09 848 25.04 -10 14.1 81 -12.6 9.3
03:55 1019 30.09 848 25.04 -10 14.1 82 -12.5 9.5
04:00 1019 30.09 848 25.04 -9.9 14.2 83 -12.3 9.9
04:05 1019 30.09 848 25.04 -9.7 14.6 84 -12 10.5
04:10 1019 30.09 848 25.04 -9.5 14.9 83 -11.9 10.5
04:15 1019 30.09 848 25.04 -9.4 15.1 83 -11.8 10.7
04:20 1019 30.09 848 25.04 -8.9 16 80 -11.8 10.7
04:25 1019 30.09 848 25.04 -8.4 16.8 77 -11.8 10.8
04:30 1018 30.06 848 25.04 -8.4 16.8 75 -12 10.3
04:35 1018 30.06 848 25.04 -8.3 17 74 -12.1 10.2
04:40 1019 30.09 848 25.04 -8.4 16.8 74 -12.3 9.8
04:45 1018 30.06 848 25.04 -8.7 16.4 75 -12.3 9.8
04:50 1018 30.06 848 25.04 -8.5 16.8 74 -12.4 9.7
04:55 1018 30.06 848 25.04 -8.4 16.8 74 -12.3 9.9
05:00 1018 30.06 847 25.01 -9 15.8 78 -12.2 10.1
05:05 1018 30.06 848 25.04 -9.4 15.1 81 -12.1 10.3
05:10 1018 30.06 848 25.04 -9.6 14.7 84 -11.8 10.7
05:15 1018 30.06 848 25.04 -9.1 15.6 77 -12.5 9.6
05:20 1018 30.06 848 25.04 -9 15.8 78 -12.2 10
05:25 1018 30.06 848 25.04 -9 15.7 79 -12.1 10.3
05:30 1018 30.06 848 25.04 -8.8 16.1 75 -12.4 9.6
05:35 1018 30.06 848 25.04 -9.3 15.3 79 -12.3 9.9
05:40 1018 30.06 847 25.01 -9.6 14.7 81 -12.3 9.9
05:45 1018 30.06 848 25.04 -9.5 14.8 83 -11.9 10.5
05:50 1018 30.06 848 25.04 -9.5 15 80 -12.3 9.9
05:55 1018 30.06 847 25.01 -9.7 14.6 83 -12.1 10.2
06:00 1018 30.06 847 25.01 -9.9 14.3 83 -12.3 9.9
06:05 1018 30.06 847 25.01 -10 14 83 -12.4 9.7
06:10 1018 30.06 847 25.01 -9.9 14.2 83 -12.2 10
06:15 1018 30.06 847 25.01 -9.7 14.6 84 -11.8 10.7
06:20 1018 30.06 847 25.01 -9.5 15 83 -11.9 10.6
06:25 1018 30.06 847 25.01 -9.2 15.4 84 -11.5 11.3
06:30 1018 30.06 847 25.01 -8.9 16 79 -11.9 10.6
06:35 1018 30.06 847 25.01 -9.2 15.5 79 -12.1 10.2
06:40 1018 30.06 847 25.01 -9.5 14.9 82 -12 10.5
06:45 1018 30.06 847 25.01 -9.2 15.5 81 -11.9 10.6
06:50 1018 30.06 847 25.01 -9 15.7 81 -11.7 10.9
06:55 1018 30.06 847 25.01 -8.7 16.4 80 -11.6 11.2
07:00 1018 30.06 847 25.01 -8.5 16.6 78 -11.6 11
07:05 1018 30.06 847 25.01 -8.7 16.4 78 -11.8 10.8
07:10 1018 30.06 847 25.01 -9 15.8 81 -11.7 10.9
07:15 1018 30.06 847 25.01 -9 15.8 80 -11.8 10.8
07:20 1018 30.06 847 25.01 -8.6 16.5 78 -11.8 10.8
07:25 1018 30.06 847 25.01 -8.9 16 81 -11.6 11.2
07:30 1018 30.06 847 25.01 -9.1 15.6 83 -11.5 11.2
07:35 1018 30.06 847 25.01 -9.3 15.3 80 -12 10.3
07:40 1018 30.06 847 25.01 -9.4 15 82 -11.9 10.5
07:45 1018 30.06 847 25.01 -8.9 15.9 80 -11.8 10.7
07:50 1018 30.06 847 25.01 -8.7 16.4 79 -11.6 11.1
07:55 1018 30.06 847 25.01 -8.7 16.4 79 -11.7 11
08:00 1018 30.06 847 25.01 -8.4 17 76 -11.9 10.6
08:05 1018 30.06 847 25.01 -8.1 17.5 77 -11.3 11.6
08:10 1018 30.06 847 25.01 -7.8 18 75 -11.6 11.2
08:15 1018 30.06 847 25.01 -8.1 17.4 77 -11.5 11.4
08:20 1018 30.06 847 25.01 -8.2 17.2 76 -11.7 11
08:25 1018 30.06 847 25.01 -8.1 17.5 74 -11.8 10.7
08:30 1018 30.06 847 25.01 -8.2 17.2 76 -11.8 10.8
08:35 1018 30.06 847 25.01 -7.8 17.9 73 -11.9 10.7
08:40 1018 30.06 847 25.01 -7.1 19.2 73 -11.2 11.8
08:45 1018 30.06 847 25.01 -6.3 20.7 67 -11.4 11.5
08:50 1018 30.06 847 25.01 -5.4 22.3 63 -11.3 11.7
08:55 1018 30.06 847 25.01 -4.8 23.4 62 -11 12.1
09:00 1018 30.06 847 25.01 -4.5 24 62 -10.7 12.7
09:05 1018 30.06 847 25.01 -4.6 23.7 62 -10.8 12.6
09:10 1018 30.06 847 25.01 -4.8 23.3 62 -11 12.2
09:15 1018 30.06 847 25.01 -4.9 23.2 63 -11 12.3
09:20 1018 30.06 847 25.01 -4.4 24 61 -10.9 12.4
09:25 1018 30.06 847 25.01 -4 24.8 60 -10.6 12.9
09:30 1018 30.06 847 25.01 -3.7 25.3 62 -10.1 13.8
09:35 1018 30.06 847 25.01 -3.6 25.5 60 -10.3 13.5
09:40 1018 30.06 847 25.01 -3.5 25.8 60 -10.1 13.7
09:45 1018 30.06 847 25.01 -3.1 26.3 59 -10.1 13.8
09:50 1018 30.06 847 25.01 -2.6 27.4 56 -10.2 13.7
09:55 1018 30.06 847 25.01 -2.1 28.2 55 -10.1 13.9
10:00 1018 30.06 847 25.01 -2.6 27.3 59 -9.6 14.6
10:05 1018 30.06 847 25.01 -2.7 27.2 57 -10 13.9
10:10 1018 30.06 847 25.01 -2.7 27.2 58 -9.8 14.3
10:15 1018 30.06 847 25.01 -2.4 27.7 56 -10.1 13.8
10:20 1018 30.06 847 25.01 -2.6 27.3 57 -10 13.9
10:25 1018 30.06 847 25.01 -2.3 27.8 56 -9.8 14.3
10:30 1018 30.06 847 25.01 -1.4 29.4 53 -9.9 14.1
10:35 1018 30.06 847 25.01 -1.3 29.7 54 -9.4 15.1
10:40 1018 30.06 847 25.01 -1 30.2 51 -10 14
10:45 1018 30.06 847 25.01 -0.4 31.3 50 -9.5 14.9
10:50 1018 30.06 847 25.01 -0.2 31.6 50 -9.3 15.2
10:55 1018 30.06 847 25.01 0.1 32.2 49 -9.4 15
11:00 1018 30.06 847 25.01 0.3 32.5 49 -9.3 15.2
11:05 1018 30.06 847 25.01 0.1 32.1 49 -9.4 15.1
11:10 1018 30.06 847 25.01 -0 32 48 -9.7 14.6
11:15 1018 30.06 847 25.01 -0.4 31.2 51 -9.4 15.1
11:20 1018 30.06 847 25.01 -1 30.2 51 -9.9 14.1
11:25 1018 30.06 847 25.01 -1.8 28.8 56 -9.5 14.9
11:30 1017 30.03 847 25.01 -2.9 26.9 59 -9.8 14.4
11:35 1017 30.03 847 25.01 -2.7 27.2 56 -10.3 13.4
11:40 1017 30.03 846 24.98 -1.7 28.9 53 -10.1 13.7
11:45 1017 30.03 846 24.98 -1 30.3 50 -10.1 13.8
11:50 1017 30.03 846 24.98 -0.5 31 49 -9.9 14.2
11:55 1017 30.03 846 24.98 0.1 32.2 48 -9.7 14.5
12:00 1017 30.03 846 24.98 0.1 32.1 50 -9.2 15.5
12:05 1017 30.03 846 24.98 -0.4 31.4 50 -9.6 14.7
12:10 1017 30.03 846 24.98 0.2 32.3 48 -9.5 14.9
12:15 1017 30.03 846 24.98 0.4 32.8 46 -10 14.1
12:20 1017 30.03 846 24.98 0.4 32.7 45 -10.3 13.5
12:25 1017 30.03 846 24.98 0.3 32.5 46 -10 13.9
12:30 1017 30.03 846 24.98 0.3 32.5 46 -10 14
12:35 1017 30.03 846 24.98 0.6 33.1 43 -10.5 13
12:40 1017 30.03 846 24.98 1 33.9 44 -10 13.9
12:45 1017 30.03 846 24.98 1.2 34.2 42 -10.4 13.3
12:50 1017 30.03 846 24.98 1.6 34.9 41 -10.2 13.6
12:55 1017 30.03 846 24.98 1.4 34.6 44 -9.6 14.7
13:00 1016 30 846 24.98 1.2 34.2 45 -9.3 15.2
13:05 1016 30 846 24.98 0.3 32.6 50 -8.8 16.1
13:10 1016 30 846 24.98 -0.1 31.8 49 -9.6 14.8
13:15 1016 30 846 24.98 0.1 32.2 49 -9.4 15
13:20 1016 30 845 24.95 0 32.1 49 -9.5 14.9
13:25 1016 30 845 24.95 0 32.1 49 -9.4 15.2
13:30 1016 30 845 24.95 0.3 32.5 47 -9.7 14.6
13:35 1016 30 845 24.95 0.2 32.3 49 -9.2 15.4
13:40 1016 30 845 24.95 0.1 32.1 48 -9.8 14.4
13:45 1016 30 845 24.95 0.8 33.5 45 -9.9 14.2
13:50 1016 30 845 24.95 0.6 33.1 48 -9.2 15.4
13:55 1016 30 845 24.95 0.5 32.9 48 -9.3 15.3
14:00 1016 30 845 24.95 0.9 33.5 45 -9.9 14.1
14:05 1016 30 845 24.95 1 33.8 46 -9.3 15.3
14:10 1016 30 845 24.95 1.8 35.2 44 -9.2 15.4
14:15 1016 30 845 24.95 1.9 35.4 45 -8.8 16.1
14:20 1015 29.97 845 24.95 1.6 34.8 44 -9.3 15.3
14:25 1015 29.97 845 24.95 1.9 35.4 45 -8.9 16
14:30 1015 29.97 845 24.95 1.7 35.1 45 -8.9 16
14:35 1015 29.97 845 24.95 1.9 35.3 44 -9.1 15.6
14:40 1015 29.97 845 24.95 1.8 35.2 44 -9.3 15.3
14:45 1015 29.97 845 24.95 1.7 35 46 -8.6 16.5
14:50 1015 29.97 844 24.92 1.1 33.9 47 -9.1 15.6
14:55 1015 29.97 844 24.92 1 33.8 46 -9.3 15.2
15:00 1015 29.97 844 24.92 1.3 34.3 46 -9 15.7
15:05 1015 29.97 844 24.92 1.3 34.4 46 -9.2 15.5
15:10 1015 29.97 844 24.92 1.6 34.9 46 -8.8 16.2
15:15 1015 29.97 844 24.92 1.6 34.9 46 -8.7 16.4
15:20 1015 29.97 844 24.92 1.6 34.9 45 -9.1 15.6
15:25 1015 29.97 844 24.92 2 35.6 46 -8.5 16.7
15:30 1015 29.97 844 24.92 1.1 34 49 -8.5 16.7
15:35 1015 29.97 844 24.92 0.2 32.4 52 -8.6 16.6
15:40 1015 29.97 844 24.92 0.1 32.2 51 -8.9 16
15:45 1015 29.97 844 24.92 0.4 32.7 50 -8.9 15.9
15:50 1015 29.97 844 24.92 -0.1 31.9 52 -8.8 16.1
15:55 1015 29.97 844 24.92 -0 31.9 51 -8.9 15.9
16:00 1015 29.97 844 24.92 0.2 32.4 52 -8.6 16.5
16:05 1015 29.97 844 24.92 0.3 32.6 52 -8.5 16.7
16:10 1015 29.97 844 24.92 0.3 32.5 52 -8.4 16.8
16:15 1015 29.97 844 24.92 0.5 32.9 49 -9 15.8
16:20 1015 29.97 844 24.92 0.6 33.1 52 -8.3 17.1
16:25 1015 29.97 844 24.92 -0 32 52 -8.8 16.2
16:30 1015 29.97 844 24.92 -0.3 31.5 53 -8.8 16.2
16:35 1015 29.97 844 24.92 -0.4 31.4 53 -8.7 16.3
16:40 1015 29.97 844 24.92 -0.6 30.9 54 -8.9 16
16:45 1015 29.97 844 24.92 -1.1 30.1 57 -8.6 16.4
16:50 1015 29.97 844 24.92 -1.5 29.3 59 -8.6 16.5
16:55 1015 29.97 844 24.92 -1.7 28.9 60 -8.4 16.9
17:00 1015 29.97 844 24.92 -1.8 28.8 62 -8.1 17.4
17:05 1015 29.97 844 24.92 -2 28.3 63 -8.2 17.2
17:10 1015 29.97 844 24.92 -2.1 28.3 63 -8.3 17.1
17:15 1015 29.97 844 24.92 -1.9 28.6 61 -8.4 16.8
17:20 1015 29.97 844 24.92 -1.6 29.2 62 -8 17.6
17:25 1015 29.97 844 24.92 -1.7 28.9 64 -7.7 18.1
17:30 1015 29.97 844 24.92 -2.2 28 66 -7.8 18
17:35 1015 29.97 844 24.92 -2.7 27.1 68 -7.7 18.1
17:40 1015 29.97 844 24.92 -3.3 26.1 70 -8 17.6
17:45 1015 29.97 844 24.92 -3.6 25.6 71 -8.1 17.4
17:50 1015 29.97 844 24.92 -3.5 25.8 74 -7.4 18.6
17:55 1015 29.97 844 24.92 -3.3 26 75 -7.2 19
18:00 1015 29.97 844 24.92 -3.2 26.2 75 -7 19.3
18:05 1015 29.97 844 24.92 -3 26.6 76 -6.7 20
18:10 1015 29.97 844 24.92 -2.8 26.9 75 -6.7 20
18:15 1015 29.97 844 24.92 -2.8 27 74 -6.8 19.7
18:20 1015 29.97 844 24.92 -2.5 27.4 72 -7 19.5
18:25 1015 29.97 844 24.92 -2.5 27.6 69 -7.3 18.8
18:30 1014 29.94 844 24.92 -2.7 27.1 69 -7.7 18.1
18:35 1014 29.94 844 24.92 -2.8 26.9 68 -8 17.7
18:40 1014 29.94 844 24.92 -2.5 27.5 65 -8.3 17.1
18:45 1014 29.94 844 24.92 -2.3 27.8 68 -7.5 18.5
18:50 1014 29.94 843 24.89 -2.5 27.4 71 -7 19.4
18:55 1014 29.94 843 24.89 -2.5 27.5 71 -7.1 19.2
19:00 1014 29.94 843 24.89 -2.6 27.3 72 -6.9 19.5
19:05 1014 29.94 843 24.89 -2.8 26.9 74 -6.8 19.7
19:10 1014 29.94 843 24.89 -3.3 26.1 76 -6.9 19.6
19:15 1014 29.94 843 24.89 -3.1 26.3 77 -6.6 20.2
19:20 1014 29.94 843 24.89 -2.5 27.5 73 -6.7 19.9
19:25 1014 29.94 843 24.89 -2.4 27.7 68 -7.5 18.6
19:30 1014 29.94 843 24.89 -2.4 27.7 68 -7.6 18.4
19:35 1014 29.94 843 24.89 -2.1 28.3 66 -7.5 18.4
19:40 1014 29.94 843 24.89 -2.1 28.2 67 -7.5 18.5
19:45 1014 29.94 843 24.89 -2.2 28 67 -7.5 18.4
19:50 1014 29.94 843 24.89 -2.2 28.1 67 -7.5 18.5
19:55 1014 29.94 843 24.89 -2.1 28.1 67 -7.5 18.6
20:00 1014 29.94 843 24.89 -2.1 28.3 70 -6.9 19.6
20:05 1014 29.94 843 24.89 -1.8 28.8 71 -6.5 20.4
20:10 1014 29.94 843 24.89 -2 28.4 71 -6.5 20.3
20:15 1014 29.94 843 24.89 -2.6 27.4 74 -6.7 20
20:20 1014 29.94 843 24.89 -2.8 27 73 -6.9 19.5
20:25 1014 29.94 843 24.89 -3.1 26.4 76 -6.8 19.8
20:30 1014 29.94 843 24.89 -3.6 25.6 75 -7.4 18.7
20:35 1014 29.94 843 24.89 -3.2 26.2 69 -8.2 17.3
20:40 1014 29.94 843 24.89 -2.7 27.2 70 -7.4 18.7
20:45 1014 29.94 843 24.89 -2.4 27.6 69 -7.3 18.9
20:50 1014 29.94 843 24.89 -2.9 26.7 71 -7.5 18.6
20:55 1014 29.94 843 24.89 -2.7 27.1 70 -7.5 18.6
21:00 1014 29.94 843 24.89 -3.1 26.4 73 -7.3 18.8
21:05 1014 29.94 843 24.89 -3.4 25.8 74 -7.4 18.6
21:10 1014 29.94 843 24.89 -3.2 26.3 71 -7.8 18
21:15 1014 29.94 843 24.89 -2.6 27.3 70 -7.4 18.8
21:20 1014 29.94 843 24.89 -2.5 27.6 71 -6.9 19.5
21:25 1014 29.94 843 24.89 -2.1 28.1 73 -6.4 20.4
21:30 1014 29.94 843 24.89 -2.1 28.2 70 -6.9 19.6
21:35 1014 29.94 843 24.89 -2.1 28.2 70 -6.9 19.6
21:40 1014 29.94 843 24.89 -1.9 28.5 64 -7.9 17.8
21:45 1014 29.94 843 24.89 -1.5 29.2 62 -7.9 17.8
21:50 1014 29.94 843 24.89 -1.3 29.7 62 -7.5 18.4
21:55 1014 29.94 843 24.89 -1.3 29.6 64 -7.4 18.8
22:00 1014 29.94 843 24.89 -1.4 29.5 62 -7.7 18.2
22:05 1014 29.94 843 24.89 -1.1 30.1 61 -7.7 18.1
22:10 1014 29.94 843 24.89 -1 30.3 61 -7.6 18.3
22:15 1014 29.94 843 24.89 -0.9 30.3 62 -7.3 18.9
22:20 1014 29.94 843 24.89 -1.2 29.9 64 -7.1 19.2
22:25 1014 29.94 843 24.89 -1.5 29.3 65 -7.3 18.9
22:30 1014 29.94 843 24.89 -1.6 29.1 64 -7.5 18.5
22:35 1014 29.94 843 24.89 -1.3 29.6 62 -7.8 18
22:40 1014 29.94 843 24.89 -1.1 30 61 -7.7 18.1
22:45 1014 29.94 843 24.89 -1.1 30 60 -8 17.5
22:50 1014 29.94 843 24.89 -0.9 30.5 56 -8.5 16.7
22:55 1014 29.94 843 24.89 -0.7 30.8 55 -8.6 16.5
23:00 1014 29.94 843 24.89 -0.5 31 53 -8.9 15.9
23:05 1014 29.94 843 24.89 -0.6 31 57 -8 17.5
23:10 1014 29.94 843 24.89 -0.6 30.9 55 -8.5 16.7
23:15 1014 29.94 843 24.89 -0.5 31 56 -8.3 17.1
23:20 1014 29.94 843 24.89 -0.7 30.8 54 -8.8 16.2
23:25 1014 29.94 843 24.89 -0.7 30.7 55 -8.8 16.2
23:30 1014 29.94 843 24.89 -0.3 31.5 53 -8.6 16.5
23:35 1014 29.94 843 24.89 -0.6 30.9 55 -8.5 16.7
23:40 1014 29.94 843 24.89 -0.8 30.7 58 -8.1 17.4
23:45 1014 29.94 843 24.89 -0.8 30.6 56 -8.5 16.8
23:50 1014 29.94 843 24.89 -0.7 30.8 58 -8 17.5
23:55 1014 29.94 843 24.89 -0.7 30.7 57 -8.2 17.3
24:00 1014 29.94 843 24.89 -0.6 31 63 -6.8 19.7